Time;durP1;ratioP1;P1;durP2;ratioP2;P2;SDS_P1;SDS_P2;PMS_P1;PMS_P2;Temp;Humidity;BMP_temperature;BMP_pressure;BME280_temperature;BME280_humidity;BME280_pressure;Samples;Min_cycle;Max_cycle;Signal;HPM_P1;HPM_P2
2022/04/01 00:02:24;;;;;;;28.47;12.80;;;;;;;39.40;44.68;100806.66;4769090;30;20455;-71
2022/04/01 00:04:50;;;;;;;40.17;14.53;;;;;;;39.49;44.34;100804.75;4767502;30;20492;-73
2022/04/01 00:10:38;;;;;;;28.53;11.90;;;;;;;39.53;44.04;100778.53;4772363;30;20447;-73
2022/04/01 00:13:05;;;;;;;33.83;13.27;;;;;;;39.30;44.65;100772.50;4771430;30;20852;-74
2022/04/01 00:15:31;;;;;;;44.50;15.23;;;;;;;39.04;45.49;100756.16;4772406;30;20416;-71
2022/04/01 00:17:58;;;;;;;28.40;12.90;;;;;;;39.14;45.24;100769.41;4772362;30;20416;-71
2022/04/01 00:20:27;;;;;;;38.80;13.13;;;;;;;39.14;45.18;100763.97;4771136;30;20924;-72
2022/04/01 00:22:53;;;;;;;39.97;13.17;;;;;;;39.02;45.29;100765.69;4770854;30;20462;-72
2022/04/01 00:25:20;;;;;;;28.23;11.90;;;;;;;39.11;45.43;100753.75;4771075;30;20436;-72
2022/04/01 00:27:46;;;;;;;22.63;12.43;;;;;;;39.04;45.59;100758.88;4770800;30;20998;-71
2022/04/01 00:30:12;;;;;;;26.80;11.50;;;;;;;39.27;45.47;100756.81;4770850;30;20424;-71
2022/04/01 00:32:38;;;;;;;46.07;13.97;;;;;;;39.26;45.46;100762.59;4771917;30;20507;-72
2022/04/01 00:35:06;;;;;;;26.93;13.30;;;;;;;39.26;45.25;100763.38;4770851;30;20478;-72
2022/04/01 00:37:33;;;;;;;32.60;13.50;;;;;;;39.38;44.94;100763.56;4770666;30;21002;-72
2022/04/01 00:39:59;;;;;;;39.47;14.03;;;;;;;39.19;45.46;100754.91;4770801;30;20440;-74
2022/04/01 00:42:26;;;;;;;32.93;12.93;;;;;;;39.14;45.46;100750.41;4770629;30;20436;-74
2022/04/01 00:44:52;;;;;;;34.90;13.87;;;;;;;39.30;44.82;100752.69;4771773;30;20975;-73
2022/04/01 00:47:19;;;;;;;41.80;13.63;;;;;;;39.18;45.46;100748.69;4770569;30;20535;-73
2022/04/01 00:49:47;;;;;;;31.17;13.40;;;;;;;38.84;45.84;100746.66;4770625;30;20443;-74
2022/04/01 00:52:17;;;;;;;35.30;11.73;;;;;;;38.73;46.31;100749.97;4770366;30;20455;-73
2022/04/01 00:54:44;;;;;;;33.70;12.43;;;;;;;38.94;45.97;100749.09;4770401;30;20433;-72
2022/04/01 00:57:13;;;;;;;24.73;13.93;;;;;;;39.15;45.63;100746.56;4770506;30;20464;-74
2022/04/01 00:59:40;;;;;;;34.33;12.30;;;;;;;39.28;45.28;100754.91;4755754;30;20495;-72
2022/04/01 01:02:08;;;;;;;24.13;12.93;;;;;;;39.28;44.93;100758.41;4770359;30;20583;-72
2022/04/01 01:04:34;;;;;;;22.60;11.07;;;;;;;38.99;45.61;100755.50;4770159;30;20494;-71
2022/04/01 01:07:02;;;;;;;34.77;13.50;;;;;;;38.81;46.12;100757.38;4770167;30;20444;-71
2022/04/01 01:09:29;;;;;;;37.53;12.43;;;;;;;38.79;46.07;100754.16;4770349;30;20515;-73
2022/04/01 01:11:55;;;;;;;40.80;13.30;;;;;;;38.88;46.03;100738.72;4771248;30;20413;-73
2022/04/01 01:14:31;;;;;;;37.83;13.73;;;;;;;38.71;46.17;100747.56;4771380;30;20463;-74
2022/04/01 01:16:59;;;;;;;25.27;11.87;;;;;;;38.92;45.64;100745.13;4755741;30;20412;-73
2022/04/01 01:19:26;;;;;;;38.20;15.07;;;;;;;38.88;45.50;100744.13;4769996;30;20432;-72
2022/04/01 01:21:54;;;;;;;24.40;11.67;;;;;;;38.85;45.72;100747.47;4770089;30;20826;-72
2022/04/01 01:24:39;;;;;;;25.60;11.47;;;;;;;38.72;46.15;100746.47;4755334;30;20658;-71
2022/04/01 01:27:07;;;;;;;27.57;15.40;;;;;;;38.82;45.91;100750.81;4769779;30;20816;-72
2022/04/01 01:29:37;;;;;;;30.73;16.17;;;;;;;38.77;46.04;100738.19;4769972;30;20443;-72
2022/04/01 01:32:06;;;;;;;42.60;13.63;;;;;;;38.62;46.62;100746.75;4769928;30;20504;-72
2022/04/01 01:34:32;;;;;;;39.53;13.93;;;;;;;38.87;46.09;100742.56;4740425;30;20483;-72
2022/04/01 01:37:00;;;;;;;33.23;14.60;;;;;;;38.61;46.21;100729.69;4771088;30;20412;-74
2022/04/01 01:39:26;;;;;;;42.60;15.20;;;;;;;38.66;46.39;100718.69;4755156;30;20428;-72
2022/04/01 01:41:53;;;;;;;35.53;13.83;;;;;;;38.68;46.21;100712.97;4769712;30;20897;-73
2022/04/01 01:44:21;;;;;;;27.03;12.87;;;;;;;38.57;46.20;100717.88;4769657;30;20819;-73
2022/04/01 01:46:48;;;;;;;36.67;16.27;;;;;;;38.61;46.40;100716.13;4769330;30;20432;-71
2022/04/01 01:49:14;;;;;;;31.13;14.30;;;;;;;38.64;46.00;100715.50;4769676;30;20424;-71
2022/04/01 01:54:49;;;;;;;30.17;15.23;;;;;;;39.03;45.37;100703.00;4770673;30;20467;-71
2022/04/01 01:57:17;;;;;;;29.57;14.47;;;;;;;39.12;45.38;100692.97;4769551;30;20819;-73
2022/04/01 01:59:44;;;;;;;29.63;11.60;;;;;;;39.27;44.70;100683.56;4769444;30;20959;-74
2022/04/01 02:02:11;;;;;;;26.87;13.23;;;;;;;39.10;44.86;100673.50;4770660;30;20524;-71
2022/04/01 02:04:39;;;;;;;34.60;12.17;;;;;;;38.94;45.32;100670.44;4769231;30;20492;-72
2022/04/01 02:07:06;;;;;;;34.00;12.90;;;;;;;39.18;44.72;100669.22;4766277;30;20523;-72
2022/04/01 02:09:32;;;;;;;40.57;15.27;;;;;;;39.27;44.61;100670.00;4769273;30;20442;-72
2022/04/01 02:11:59;;;;;;;39.27;13.80;;;;;;;39.17;44.95;100679.28;4769036;30;20461;-72
2022/04/01 02:14:26;;;;;;;31.30;15.00;;;;;;;38.98;45.38;100673.34;4770376;30;20460;-72
2022/04/01 02:16:52;;;;;;;29.83;13.67;;;;;;;38.82;45.98;100662.13;4768926;30;20438;-72
2022/04/01 02:19:22;;;;;;;35.07;15.70;;;;;;;39.06;45.40;100663.59;4770356;30;20794;-73
2022/04/01 02:21:49;;;;;;;33.77;11.47;;;;;;;38.63;45.95;100664.31;4768886;30;20531;-73
2022/04/01 02:24:17;;;;;;;38.40;11.53;;;;;;;38.83;45.47;100657.50;4770232;30;20412;-70
2022/04/01 02:26:47;;;;;;;31.60;12.17;;;;;;;38.75;45.77;100650.19;4768976;30;20432;-71
2022/04/01 02:29:20;;;;;;;32.13;15.00;;;;;;;39.01;45.45;100644.78;4768246;30;20463;-74
2022/04/01 02:31:50;;;;;;;36.00;14.70;;;;;;;38.86;45.48;100648.75;4755060;30;20471;-71
2022/04/01 02:34:17;;;;;;;29.47;12.60;;;;;;;38.69;46.20;100642.16;4768579;30;20475;-71
2022/04/01 02:36:43;;;;;;;35.73;14.20;;;;;;;38.73;46.01;100655.09;4754323;30;20917;-71
2022/04/01 02:39:10;;;;;;;38.90;11.70;;;;;;;38.72;46.30;100654.28;4770069;30;20420;-71
2022/04/01 02:41:36;;;;;;;39.07;12.87;;;;;;;38.93;45.82;100647.16;4769939;30;20482;-74
2022/04/01 02:44:09;;;;;;;37.60;14.93;;;;;;;38.95;46.11;100663.09;4768672;30;21008;-74
2022/04/01 02:46:37;;;;;;;27.07;12.53;;;;;;;39.13;45.50;100658.50;4769860;30;20893;-73
2022/04/01 02:49:06;;;;;;;25.57;10.57;;;;;;;38.77;46.17;100666.91;4769879;30;21028;-71
2022/04/01 02:51:36;;;;;;;21.33;11.57;;;;;;;38.76;46.31;100654.47;4769695;30;20491;-71
2022/04/01 02:54:04;;;;;;;25.10;10.80;;;;;;;38.79;46.06;100660.03;4768424;30;20480;-71
2022/04/01 02:56:32;;;;;;;28.93;13.07;;;;;;;39.05;45.48;100649.25;4769804;30;20440;-72
2022/04/01 02:59:00;;;;;;;61.23;18.20;;;;;;;39.04;45.60;100654.97;4768551;30;20486;-71
2022/04/01 03:01:28;;;;;;;32.50;13.23;;;;;;;39.07;45.88;100655.13;4769634;30;20878;-72
2022/04/01 03:03:55;;;;;;;31.67;12.67;;;;;;;39.13;45.49;100637.59;4768140;30;20480;-72
2022/04/01 03:06:21;;;;;;;40.90;12.07;;;;;;;39.04;46.22;100638.69;4753857;30;20436;-73
2022/04/01 03:08:49;;;;;;;32.30;12.97;;;;;;;39.14;45.12;100639.16;4769460;30;20767;-74
2022/04/01 03:11:16;;;;;;;37.77;15.70;;;;;;;39.06;44.82;100639.97;4768335;30;20432;-73
2022/04/01 03:13:42;;;;;;;41.97;13.30;;;;;;;39.03;44.97;100631.66;4768172;30;20467;-74
2022/04/01 03:16:08;;;;;;;27.03;12.37;;;;;;;39.05;44.83;100637.59;4768169;30;20489;-71
2022/04/01 03:18:40;;;;;;;36.93;15.20;;;;;;;39.07;44.86;100648.91;4768076;30;20546;-72
2022/04/01 03:21:09;;;;;;;29.83;12.63;;;;;;;39.18;44.77;100647.50;4768132;30;20548;-72
2022/04/01 03:23:40;;;;;;;29.83;11.83;;;;;;;39.19;45.09;100649.91;4768149;30;20523;-72
2022/04/01 03:26:07;;;;;;;39.30;14.53;;;;;;;39.15;45.02;100638.06;4768343;30;20429;-72
2022/04/01 03:28:34;;;;;;;28.50;12.30;;;;;;;38.78;45.48;100620.50;4768043;30;20479;-72
2022/04/01 03:31:03;;;;;;;31.37;16.47;;;;;;;39.02;44.97;100621.94;4768330;30;21005;-72
2022/04/01 03:33:33;;;;;;;39.63;12.97;;;;;;;39.13;45.12;100624.03;4767921;30;20999;-72
2022/04/01 03:36:00;;;;;;;23.00;12.00;;;;;;;38.77;45.79;100609.97;4767870;30;20464;-72
2022/04/01 03:38:27;;;;;;;43.33;14.53;;;;;;;38.69;46.05;100625.09;4767920;30;20498;-71
2022/04/01 03:40:53;;;;;;;31.97;13.87;;;;;;;38.83;45.90;100623.06;4768705;30;20431;-74
2022/04/01 03:43:21;;;;;;;31.60;14.60;;;;;;;38.72;46.86;100629.09;4767963;30;20428;-71
2022/04/01 03:45:48;;;;;;;33.43;13.90;;;;;;;38.64;46.78;100628.75;4767930;30;20584;-72
2022/04/01 03:48:35;;;;;;;32.13;14.60;;;;;;;38.70;46.49;100626.69;4767835;30;20435;-71
2022/04/01 03:51:04;;;;;;;33.00;13.90;;;;;;;38.78;45.98;100625.91;4767920;30;20819;-72
2022/04/01 03:53:32;;;;;;;39.03;15.60;;;;;;;38.63;46.38;100631.78;4767821;30;20515;-73
2022/04/01 03:55:59;;;;;;;41.37;16.07;;;;;;;38.79;46.10;100642.97;4767814;30;20451;-71
2022/04/01 03:58:33;;;;;;;47.57;15.93;;;;;;;38.94;45.69;100634.41;4767474;30;20436;-71
2022/04/01 04:01:04;;;;;;;33.63;14.30;;;;;;;38.92;45.59;100648.28;4766955;30;20452;-71
2022/04/01 04:03:33;;;;;;;30.20;15.33;;;;;;;38.68;45.76;100659.53;4767563;30;20488;-72
2022/04/01 04:06:00;;;;;;;30.77;15.87;;;;;;;38.81;45.62;100646.19;4767931;30;20428;-73
2022/04/01 04:08:26;;;;;;;26.07;13.27;;;;;;;38.78;45.66;100647.59;4767737;30;20547;-71
2022/04/01 04:10:53;;;;;;;31.33;14.90;;;;;;;38.83;45.76;100650.16;4767573;30;20429;-72
2022/04/01 04:13:21;;;;;;;27.47;14.23;;;;;;;38.82;45.68;100643.16;4768768;30;20771;-71
2022/04/01 04:16:14;;;;;;;36.73;15.60;;;;;;;38.80;46.13;100641.91;4767186;30;20493;-72
2022/04/01 04:18:44;;;;;;;46.63;15.43;;;;;;;38.91;45.63;100641.25;4768914;30;20442;-72
2022/04/01 04:21:25;;;;;;;31.93;13.17;;;;;;;38.63;45.83;100656.19;4767552;30;20817;-72
2022/04/01 04:23:55;;;;;;;27.07;13.20;;;;;;;38.62;45.72;100655.38;4767637;30;20441;-73
2022/04/01 04:26:30;;;;;;;41.37;14.67;;;;;;;38.63;45.65;100673.25;4767543;30;20803;-73
2022/04/01 04:29:11;;;;;;;30.30;14.17;;;;;;;38.53;45.95;100670.81;4767688;30;20438;-71
2022/04/01 04:31:42;;;;;;;40.67;15.97;;;;;;;38.64;45.76;100676.75;4768840;30;20412;-71
2022/04/01 04:34:14;;;;;;;34.27;15.07;;;;;;;38.72;45.44;100691.47;4767491;30;20564;-72
2022/04/01 04:36:42;;;;;;;31.00;15.40;;;;;;;38.84;45.16;100694.34;4752797;30;20428;-73
2022/04/01 04:39:16;;;;;;;32.73;15.10;;;;;;;38.35;45.94;100696.25;4752894;30;20489;-73
2022/04/01 04:41:43;;;;;;;27.13;13.80;;;;;;;38.58;45.93;100696.97;4752684;30;20452;-71
2022/04/01 04:44:11;;;;;;;42.97;14.53;;;;;;;38.50;45.65;100712.09;4752705;30;20438;-73
2022/04/01 04:46:43;;;;;;;47.93;15.20;;;;;;;38.33;46.00;100720.97;4767548;30;20427;-73
2022/04/01 04:49:10;;;;;;;40.90;15.97;;;;;;;38.36;45.58;100722.22;4767440;30;20440;-73
2022/04/01 04:51:36;;;;;;;29.53;12.40;;;;;;;38.64;44.86;100726.34;4767322;30;20531;-72
2022/04/01 04:54:03;;;;;;;33.07;12.80;;;;;;;38.91;44.25;100727.22;4771544;30;20464;-74
2022/04/01 04:56:31;;;;;;;35.07;12.87;;;;;;;38.87;44.15;100716.22;4770492;30;21005;-73
2022/04/01 04:58:57;;;;;;;23.83;13.10;;;;;;;38.82;44.72;100723.72;4770470;30;20431;-74
2022/04/01 05:01:39;;;;;;;39.83;13.43;;;;;;;38.74;44.75;100724.50;4770401;30;20455;-71
2022/04/01 05:04:19;;;;;;;33.20;12.13;;;;;;;38.52;45.09;100726.13;4770315;30;20495;-71
2022/04/01 05:06:58;;;;;;;47.83;14.60;;;;;;;38.58;44.77;100722.16;4771647;30;20499;-72
2022/04/01 05:09:25;;;;;;;38.17;15.53;;;;;;;38.64;45.03;100726.34;4755499;30;20989;-71
2022/04/01 05:12:09;;;;;;;41.67;13.73;;;;;;;39.04;44.21;100734.44;4771425;30;20451;-74
2022/04/01 05:14:50;;;;;;;32.80;12.93;;;;;;;39.14;43.49;100742.25;4770138;30;20934;-73
2022/04/01 05:17:33;;;;;;;35.57;15.93;;;;;;;39.01;43.92;100740.50;4770149;30;20462;-72
2022/04/01 05:20:02;;;;;;;28.93;14.47;;;;;;;39.21;43.54;100763.53;4770214;30;20825;-73
2022/04/01 05:22:48;;;;;;;32.37;14.53;;;;;;;39.05;43.74;100767.78;4770162;30;20444;-73
2022/04/01 05:25:20;;;;;;;47.50;15.97;;;;;;;39.39;43.47;100769.78;4770022;30;20444;-71
2022/04/01 05:27:53;;;;;;;31.50;13.77;;;;;;;39.19;44.22;100782.03;4769764;30;20439;-73
2022/04/01 05:30:23;;;;;;;37.37;17.07;;;;;;;39.11;44.31;100786.31;4755397;30;20436;-71
2022/04/01 05:32:52;;;;;;;30.40;15.57;;;;;;;38.90;44.38;100771.72;4769730;30;20513;-72
2022/04/01 05:35:19;;;;;;;35.47;16.50;;;;;;;38.62;45.57;100771.94;4770668;30;20452;-71
2022/04/01 05:37:48;;;;;;;29.37;14.17;;;;;;;38.60;45.11;100771.44;4769489;30;20460;-73
2022/04/01 05:40:17;;;;;;;30.77;14.07;;;;;;;38.79;44.96;100770.41;4769836;30;20451;-71
2022/04/01 05:42:46;;;;;;;48.33;16.77;;;;;;;38.56;45.13;100781.31;4754602;30;20440;-71
2022/04/01 05:45:13;;;;;;;71.97;17.00;;;;;;;38.72;44.70;100768.16;4770849;30;20425;-73
2022/04/01 05:47:39;;;;;;;40.63;15.63;;;;;;;38.81;44.73;100774.44;4754689;30;20424;-71
2022/04/01 05:50:06;;;;;;;30.70;13.87;;;;;;;38.43;45.34;100783.03;4769084;30;20444;-72
2022/04/01 05:52:36;;;;;;;49.07;18.07;;;;;;;38.51;45.37;100792.28;4770800;30;20413;-72
2022/04/01 05:55:03;;;;;;;31.50;14.70;;;;;;;38.63;44.61;100799.84;4770926;30;20476;-73
2022/04/01 05:57:30;;;;;;;36.17;14.00;;;;;;;38.79;44.73;100779.34;4769463;30;20456;-76
2022/04/01 05:59:56;;;;;;;32.50;16.67;;;;;;;38.95;44.57;100771.59;4770750;30;20492;-75
2022/04/01 06:02:53;;;;;;;50.37;19.50;;;;;;;38.58;45.83;100756.59;4769150;30;20464;-76
2022/04/01 06:05:34;;;;;;;36.17;19.57;;;;;;;38.39;46.15;100773.91;4766912;30;20861;-72
2022/04/01 06:08:11;;;;;;;45.57;19.33;;;;;;;38.12;46.81;100810.06;4768686;30;20431;-71
2022/04/01 06:11:04;;;;;;;41.20;19.73;;;;;;;38.75;45.82;100859.75;4766727;30;20479;-72
2022/04/01 06:13:49;;;;;;;47.73;18.83;;;;;;;38.94;44.46;100889.34;4779437;29;20557;-76
2022/04/01 06:16:41;;;;;;;38.93;18.90;;;;;;;38.80;43.88;100913.84;4766265;30;20532;-72
2022/04/01 06:19:34;;;;;;;49.17;18.13;;;;;;;38.08;42.76;100903.06;4768959;30;20863;-71
2022/04/01 06:22:03;;;;;;;33.77;17.53;;;;;;;38.15;42.15;100890.69;4769121;30;20484;-72
2022/04/01 06:25:15;;;;;;;35.07;17.57;;;;;;;37.93;41.13;100874.41;4769015;30;20445;-71
2022/04/01 06:27:47;;;;;;;30.67;16.00;;;;;;;37.75;41.10;100878.03;4771879;29;20486;-71
2022/04/01 06:30:18;;;;;;;33.90;18.67;;;;;;;38.12;40.01;100875.06;4768313;30;20536;-72
2022/04/01 06:32:59;;;;;;;27.43;13.90;;;;;;;38.21;40.36;100877.03;4769526;30;20481;-73
2022/04/01 06:35:31;;;;;;;33.17;15.37;;;;;;;38.34;40.41;100871.59;4768852;30;20428;-71
2022/04/01 06:38:06;;;;;;;31.53;16.80;;;;;;;38.24;40.80;100882.63;4768366;30;20456;-73
2022/04/01 06:40:48;;;;;;;33.37;19.83;;;;;;;37.73;41.49;100893.81;4766657;30;20443;-70
2022/04/01 06:43:16;;;;;;;43.97;19.90;;;;;;;37.04;41.63;100918.94;4753644;30;20459;-70
2022/04/01 06:45:44;;;;;;;40.07;18.43;;;;;;;36.42;42.51;100960.78;4753567;30;20432;-72
2022/04/01 06:48:11;;;;;;;39.70;20.13;;;;;;;36.65;42.42;100945.53;4767821;30;20454;-72
2022/04/01 06:50:37;;;;;;;37.40;23.20;;;;;;;35.98;44.83;100932.22;4767835;30;20432;-72
2022/04/01 06:53:04;;;;;;;34.40;19.63;;;;;;;35.92;41.94;100907.19;4766777;30;20521;-71
2022/04/01 06:55:30;;;;;;;21.80;7.93;;;;;;;36.26;37.09;100890.72;4768087;30;20421;-72
2022/04/01 06:57:57;;;;;;;16.00;6.87;;;;;;;37.11;36.50;100872.56;4766684;30;20462;-72
2022/04/01 07:00:23;;;;;;;17.67;8.03;;;;;;;37.31;37.54;100872.16;4767951;30;20551;-72
2022/04/01 07:02:49;;;;;;;42.03;17.37;;;;;;;37.03;41.60;100865.16;4767651;30;20465;-70
2022/04/01 07:05:16;;;;;;;30.10;15.83;;;;;;;36.89;42.11;100894.88;4767896;30;20420;-70
2022/04/01 07:07:42;;;;;;;28.60;13.13;;;;;;;36.76;39.83;100914.53;4768056;30;20554;-72
2022/04/01 07:10:10;;;;;;;19.73;9.27;;;;;;;37.00;38.60;100931.44;4752140;30;20433;-72
2022/04/01 07:12:37;;;;;;;20.13;9.43;;;;;;;37.34;38.50;100935.75;4768148;30;20527;-72
2022/04/01 07:15:04;;;;;;;18.43;11.20;;;;;;;37.50;38.74;100934.31;4767749;30;20847;-72
2022/04/01 07:17:30;;;;;;;22.00;12.40;;;;;;;37.60;38.27;100915.19;4768233;30;20606;-72
2022/04/01 07:19:56;;;;;;;30.43;15.60;;;;;;;37.64;39.24;100897.22;4768421;30;20451;-72
2022/04/01 07:22:22;;;;;;;23.00;15.73;;;;;;;37.83;39.53;100905.25;4767873;30;20460;-72
2022/04/01 07:24:48;;;;;;;20.20;12.97;;;;;;;37.94;40.00;100908.53;4769417;30;20492;-72
2022/04/01 07:27:14;;;;;;;28.43;13.03;;;;;;;37.90;39.73;100923.78;4767985;30;20491;-70
2022/04/01 07:29:41;;;;;;;19.93;11.30;;;;;;;37.92;38.87;100932.41;4768092;30;20948;-70
2022/04/01 07:34:52;;;;;;;38.33;16.10;;;;;;;37.92;39.86;100935.91;4768237;30;20513;-70
2022/04/01 07:37:22;;;;;;;38.77;16.07;;;;;;;37.88;39.39;100944.97;4761771;30;20972;-70
2022/04/01 07:39:48;;;;;;;28.87;11.60;;;;;;;37.78;38.97;100958.66;4756986;30;20952;-72
2022/04/01 07:42:14;;;;;;;33.10;11.43;;;;;;;37.62;39.27;100956.25;4765198;30;20474;-72
2022/04/01 07:44:41;;;;;;;46.07;11.57;;;;;;;37.63;38.39;100952.47;4767783;30;20516;-72
2022/04/01 07:47:09;;;;;;;20.20;10.37;;;;;;;37.51;38.14;100954.09;4767204;30;20440;-70
2022/04/01 07:49:40;;;;;;;19.07;9.50;;;;;;;37.67;39.09;100955.38;4767068;30;20963;-70
2022/04/01 07:52:10;;;;;;;15.37;10.60;;;;;;;37.84;38.93;100971.03;4768393;30;20494;-70
2022/04/01 07:54:43;;;;;;;33.97;11.93;;;;;;;37.89;39.49;100998.00;4763984;30;20471;-72
2022/04/01 07:57:13;;;;;;;49.33;14.73;;;;;;;37.33;40.80;100994.44;4767071;30;20464;-70
2022/04/01 07:59:40;;;;;;;29.50;10.23;;;;;;;37.15;39.94;100991.78;4761582;30;20490;-67
2022/04/01 08:02:07;;;;;;;26.93;10.70;;;;;;;37.15;38.69;100995.31;4767144;30;21002;-70
2022/04/01 08:04:39;;;;;;;27.77;10.50;;;;;;;37.31;38.89;100998.50;4766476;30;20529;-71
2022/04/01 08:07:08;;;;;;;21.07;10.30;;;;;;;37.47;38.40;101008.00;4768346;30;20443;-70
2022/04/01 08:09:37;;;;;;;23.63;10.70;;;;;;;37.32;39.05;101019.06;4767228;30;20444;-70
2022/04/01 08:12:08;;;;;;;25.50;9.70;;;;;;;37.36;39.10;101006.56;4766678;30;20467;-72
2022/04/01 08:14:37;;;;;;;27.10;12.13;;;;;;;37.40;39.14;101009.50;4764884;30;20471;-69
2022/04/01 08:17:04;;;;;;;34.37;12.50;;;;;;;37.58;38.80;101016.72;4767026;30;20432;-70
2022/04/01 08:19:31;;;;;;;31.07;12.10;;;;;;;37.61;39.52;101011.50;4764512;30;20557;-70
2022/04/01 08:22:11;;;;;;;20.80;10.43;;;;;;;37.57;39.81;101015.13;4755500;30;20460;-71
2022/04/01 08:24:41;;;;;;;28.57;8.80;;;;;;;37.77;39.85;101000.38;4751982;30;20440;-73
2022/04/01 08:27:07;;;;;;;27.47;13.83;;;;;;;37.77;39.84;100998.47;4767442;30;20483;-71
2022/04/01 08:29:37;;;;;;;31.57;15.33;;;;;;;37.54;40.88;100989.44;4763190;30;20444;-70
2022/04/01 08:32:23;;;;;;;25.57;12.57;;;;;;;37.27;41.88;100978.59;4763395;30;20443;-71
2022/04/01 08:34:49;;;;;;;31.47;12.83;;;;;;;37.23;42.38;100978.38;4760732;29;20484;-72
2022/04/01 08:37:15;;;;;;;29.23;12.83;;;;;;;37.46;41.61;100992.06;4769811;30;20974;-72
2022/04/01 08:39:49;;;;;;;32.50;12.97;;;;;;;37.71;41.83;100980.75;4770049;30;20463;-70
2022/04/01 08:42:21;;;;;;;27.47;12.03;;;;;;;37.71;41.75;100983.44;4771557;30;20430;-71
2022/04/01 08:44:47;;;;;;;26.00;13.37;;;;;;;37.79;41.84;100981.94;4770104;30;21033;-70
2022/04/01 08:47:13;;;;;;;34.63;13.30;;;;;;;37.95;41.41;101004.91;4771498;30;20784;-70
2022/04/01 08:49:40;;;;;;;41.40;14.10;;;;;;;38.04;41.29;101011.22;4771540;30;20442;-70
2022/04/01 08:52:09;;;;;;;33.97;12.20;;;;;;;38.18;40.89;101003.06;4762575;30;20440;-73
2022/04/01 08:54:36;;;;;;;41.40;15.40;;;;;;;38.25;40.77;101000.75;4771138;30;20510;-72
2022/04/01 08:57:28;;;;;;;20.63;12.43;;;;;;;38.30;40.23;101006.06;4764688;30;20440;-71
2022/04/01 08:59:57;;;;;;;22.03;11.60;;;;;;;38.38;39.23;101004.56;4769993;30;20480;-71
2022/04/01 09:02:24;;;;;;;27.37;10.40;;;;;;;38.43;38.60;100999.03;4768735;30;20468;-72
2022/04/01 09:05:06;;;;;;;23.43;10.60;;;;;;;38.46;38.63;101001.09;4769571;30;20558;-71
2022/04/01 09:07:32;;;;;;;31.47;10.93;;;;;;;38.50;38.22;100999.41;4769858;30;20413;-72
2022/04/01 09:10:08;;;;;;;20.80;10.70;;;;;;;38.55;37.77;100999.28;4768635;30;20448;-72
2022/04/01 09:12:35;;;;;;;24.47;10.90;;;;;;;38.25;38.34;101008.09;4768342;30;20460;-71
2022/04/01 09:15:03;;;;;;;30.33;8.60;;;;;;;38.43;38.31;101020.72;4768974;30;20944;-72
2022/04/01 09:17:44;;;;;;;28.77;8.63;;;;;;;38.23;37.09;101012.97;4770149;30;20431;-71
2022/04/01 09:20:12;;;;;;;25.50;9.80;;;;;;;38.07;37.47;101010.63;4771319;30;20999;-72
2022/04/01 09:22:39;;;;;;;22.23;9.00;;;;;;;37.84;38.38;101012.44;4770187;30;20562;-70
2022/04/01 09:25:11;;;;;;;21.73;9.40;;;;;;;37.78;38.96;101007.41;4769924;30;20456;-72
2022/04/01 09:27:53;;;;;;;20.17;10.80;;;;;;;37.62;39.02;101015.81;4769953;30;20446;-70
2022/04/01 09:30:22;;;;;;;21.40;9.67;;;;;;;37.70;38.54;101008.13;4769820;30;20491;-70
2022/04/01 09:32:51;;;;;;;31.17;13.03;;;;;;;37.69;39.45;101012.72;4771106;30;20443;-73
2022/04/01 09:35:22;;;;;;;29.70;12.70;;;;;;;37.68;40.40;101015.72;4769768;30;20537;-70
2022/04/01 09:38:04;;;;;;;30.67;14.73;;;;;;;37.70;40.83;101002.69;4769700;30;20440;-72
2022/04/01 09:40:30;;;;;;;34.73;15.07;;;;;;;37.73;41.55;101024.53;4769818;30;20535;-72
2022/04/01 09:42:58;;;;;;;48.10;13.13;;;;;;;38.07;41.16;101024.16;4770016;30;20443;-69
2022/04/01 09:45:26;;;;;;;25.23;11.93;;;;;;;38.09;40.65;101019.22;4769780;30;20474;-71
2022/04/01 09:48:09;;;;;;;31.30;13.20;;;;;;;38.37;40.23;101011.09;4769482;30;20467;-71
2022/04/01 09:50:41;;;;;;;24.60;8.20;;;;;;;38.30;39.18;101029.66;4769607;30;20432;-72
2022/04/01 09:53:12;;;;;;;19.37;8.13;;;;;;;38.55;38.10;101029.09;4769247;30;20538;-73
2022/04/01 09:55:43;;;;;;;13.47;6.90;;;;;;;37.69;37.89;101017.31;4770647;30;20432;-71
2022/04/01 09:58:10;;;;;;;16.00;7.20;;;;;;;37.56;38.19;101011.59;4769513;30;20433;-71
2022/04/01 10:00:38;;;;;;;20.27;7.90;;;;;;;37.34;39.52;101006.09;4769412;30;20843;-71
2022/04/01 10:03:05;;;;;;;14.87;8.43;;;;;;;37.35;40.30;100980.63;4769230;30;20459;-71
2022/04/01 10:05:32;;;;;;;20.37;9.47;;;;;;;37.54;40.22;100978.63;4769316;30;20503;-72
2022/04/01 10:07:59;;;;;;;28.77;11.00;;;;;;;37.15;41.03;100973.66;4769396;30;20439;-71
2022/04/01 10:10:26;;;;;;;32.60;12.67;;;;;;;37.09;41.33;100970.25;4769353;30;20424;-72
2022/04/01 10:12:56;;;;;;;30.20;13.00;;;;;;;37.59;40.14;100959.59;4769262;30;20447;-72
2022/04/01 10:15:22;;;;;;;26.47;12.00;;;;;;;37.42;40.72;100953.97;4769934;30;20453;-70
2022/04/01 10:17:52;;;;;;;20.33;11.27;;;;;;;37.71;39.88;100950.16;4769117;30;20523;-67
2022/04/01 10:20:21;;;;;;;28.07;12.00;;;;;;;37.98;39.69;100935.78;4769148;30;20432;-72
2022/04/01 10:22:48;;;;;;;25.97;12.43;;;;;;;38.23;38.91;100935.22;4769194;30;20439;-72
2022/04/01 10:25:26;;;;;;;27.73;10.43;;;;;;;38.49;39.29;100921.09;4770365;30;20431;-72
2022/04/01 10:27:53;;;;;;;22.90;8.87;;;;;;;38.26;40.19;100917.56;4769067;30;20439;-72
2022/04/01 10:30:23;;;;;;;22.33;8.40;;;;;;;38.35;39.69;100915.72;4769289;30;20471;-72
2022/04/01 10:32:49;;;;;;;15.60;7.30;;;;;;;38.57;39.61;100910.31;4768771;30;20432;-71
2022/04/01 10:35:26;;;;;;;21.63;9.67;;;;;;;38.03;41.25;100887.72;4770428;30;20493;-71
2022/04/01 10:38:12;;;;;;;18.97;9.40;;;;;;;38.33;41.13;100886.25;4768653;30;20474;-71
2022/04/01 10:40:44;;;;;;;18.50;9.80;;;;;;;38.01;42.04;100871.00;4769801;30;21000;-71
2022/04/01 10:43:13;;;;;;;18.53;6.87;;;;;;;37.32;43.05;100864.84;4770013;30;20491;-70
2022/04/01 10:45:41;;;;;;;18.20;9.30;;;;;;;37.48;42.78;100851.84;4768584;30;20460;-70
2022/04/01 10:51:36;;;;;;;19.03;7.43;;;;;;;37.98;41.59;100858.06;4769492;30;20785;-72
2022/04/01 10:54:12;;;;;;;16.10;8.67;;;;;;;37.58;41.79;100852.44;4768540;30;20475;-70
2022/04/01 10:57:01;;;;;;;22.77;9.87;;;;;;;37.72;42.09;100848.88;4768534;30;20439;-72
2022/04/01 10:59:28;;;;;;;20.80;7.50;;;;;;;37.98;42.14;100847.22;4769594;30;20813;-70
2022/04/01 11:01:58;;;;;;;30.40;9.83;;;;;;;37.92;42.44;100853.88;4768421;30;20452;-71
2022/04/01 11:04:26;;;;;;;26.23;9.07;;;;;;;38.36;42.01;100847.69;4768024;30;20528;-72
2022/04/01 11:06:54;;;;;;;21.73;11.27;;;;;;;37.87;41.92;100857.47;4768328;30;20944;-72
2022/04/01 11:09:38;;;;;;;27.50;10.70;;;;;;;38.22;42.28;100860.47;4768057;30;20943;-72
2022/04/01 11:17:25;;;;;;;19.20;10.47;;;;;;;38.86;41.25;100860.28;4769301;30;20407;-72
2022/04/01 11:20:04;;;;;;;33.03;11.80;;;;;;;39.05;40.96;100860.81;4768194;30;20868;-72
2022/04/01 11:22:34;;;;;;;26.47;14.73;;;;;;;38.89;40.53;100848.78;4769167;30;20817;-71
2022/04/01 11:25:00;;;;;;;33.67;11.33;;;;;;;38.96;40.64;100835.56;4768105;30;20502;-70
2022/04/01 11:27:26;;;;;;;20.30;10.80;;;;;;;38.91;40.67;100830.28;4767807;30;20467;-72
2022/04/01 11:30:15;;;;;;;32.37;12.17;;;;;;;39.13;40.92;100827.47;4768033;30;20530;-72
2022/04/01 11:32:44;;;;;;;30.00;10.23;;;;;;;38.23;42.38;100826.84;4767987;30;20441;-70
2022/04/01 11:35:13;;;;;;;21.10;11.53;;;;;;;38.65;41.73;100833.66;4769174;30;20459;-70
2022/04/01 11:37:41;;;;;;;34.10;12.17;;;;;;;38.80;41.59;100827.06;4767941;30;20435;-71
2022/04/01 11:40:10;;;;;;;27.77;12.10;;;;;;;38.90;40.94;100823.25;4767931;30;20443;-71
2022/04/01 11:43:09;;;;;;;23.57;11.13;;;;;;;39.08;40.46;100811.34;4753313;30;20529;-73